Time;durP1;ratioP1;P1;durP2;ratioP2;P2;SDS_P1;SDS_P2;PMS_P1;PMS_P2;Temp;Humidity;BMP_temperature;BMP_pressure;BME280_temperature;BME280_humidity;BME280_pressure;Samples;Min_cycle;Max_cycle;Signal;HPM_P1;HPM_P2
2022/12/01 00:01:19;;;;;;;3.05;1.60;;;22.20;48.50;;;;;;5070994;28;20195;-52
2022/12/01 00:03:51;;;;;;;3.42;1.70;;;22.20;48.60;;;;;;5070816;28;20214;-57
2022/12/01 00:06:23;;;;;;;2.97;1.50;;;22.20;48.60;;;;;;5082871;28;20190;-59
2022/12/01 00:11:41;;;;;;;2.90;1.83;;;22.30;48.60;;;;;;5095223;28;20243;-61
2022/12/01 00:14:12;;;;;;;2.90;1.70;;;22.40;48.50;;;;;;5095016;28;20708;-55
2022/12/01 00:16:43;;;;;;;3.35;1.73;;;22.40;48.40;;;;;;5094870;28;20198;-57
2022/12/01 00:19:19;;;;;;;2.13;1.38;;;22.40;48.40;;;;;;5095202;28;20220;-61
2022/12/01 00:21:50;;;;;;;5.15;1.90;;;22.50;48.40;;;;;;5094789;28;20274;-60
2022/12/01 00:24:22;;;;;;;4.03;1.95;;;22.50;48.30;;;;;;5076983;28;20210;-61
2022/12/01 00:26:53;;;;;;;3.83;1.73;;;22.60;48.40;;;;;;5094422;28;20190;-56
2022/12/01 00:29:23;;;;;;;3.20;1.60;;;22.60;48.40;;;;;;5094011;28;20229;-61
2022/12/01 00:31:54;;;;;;;3.08;1.38;;;22.60;48.40;;;;;;5094119;28;20649;-58
2022/12/01 00:34:27;;;;;;;2.38;1.25;;;22.70;49.10;;;;;;5094223;28;20221;-58
2022/12/01 00:36:59;;;;;;;2.28;1.20;;;22.70;48.60;;;;;;5094102;28;20202;-58
2022/12/01 00:39:30;;;;;;;2.28;1.45;;;22.70;48.60;;;;;;5094104;28;20243;-60
2022/12/01 00:42:01;;;;;;;2.67;1.40;;;22.80;48.70;;;;;;5094671;28;20205;-50
2022/12/01 00:44:33;;;;;;;4.07;1.60;;;22.80;48.70;;;;;;5094631;28;20210;-57
2022/12/01 00:47:04;;;;;;;3.63;1.65;;;22.90;48.70;;;;;;5093322;28;20220;-55
2022/12/01 00:49:38;;;;;;;2.90;1.48;;;22.90;48.60;;;;;;5093958;28;20628;-57
2022/12/01 00:52:09;;;;;;;2.95;1.67;;;22.90;48.40;;;;;;5093957;28;20265;-56
2022/12/01 00:54:41;;;;;;;2.15;1.38;;;23.00;48.40;;;;;;5093850;28;20264;-54
2022/12/01 00:57:12;;;;;;;2.85;1.45;;;23.00;48.30;;;;;;5094213;28;20194;-58
2022/12/01 00:59:44;;;;;;;2.92;1.40;;;23.10;48.20;;;;;;5093884;28;20251;-58
2022/12/01 01:02:16;;;;;;;2.92;1.45;;;23.10;48.20;;;;;;5094015;28;20194;-60
2022/12/01 01:04:49;;;;;;;2.85;1.67;;;23.10;48.20;;;;;;5094336;28;20564;-54
2022/12/01 01:07:20;;;;;;;3.17;1.55;;;23.20;48.30;;;;;;5094451;28;20186;-57
2022/12/01 01:09:52;;;;;;;4.00;1.40;;;23.20;48.10;;;;;;5094145;28;20560;-56
2022/12/01 01:12:23;;;;;;;2.97;1.38;;;23.30;48.10;;;;;;5094099;28;20541;-51
2022/12/01 01:14:55;;;;;;;3.08;1.70;;;23.30;48.10;;;;;;5093909;28;20568;-53
2022/12/01 01:17:26;;;;;;;3.30;1.45;;;23.30;48.00;;;;;;5093876;28;20213;-59
2022/12/01 01:20:00;;;;;;;3.22;1.60;;;23.30;48.00;;;;;;5093689;28;20198;-57
2022/12/01 01:22:31;;;;;;;3.85;1.50;;;23.40;48.10;;;;;;5093670;28;20225;-56
2022/12/01 01:25:03;;;;;;;2.70;1.30;;;23.40;48.10;;;;;;5093336;28;20206;-58
2022/12/01 01:27:36;;;;;;;2.92;1.55;;;23.40;48.10;;;;;;5092950;28;20600;-58
2022/12/01 01:30:07;;;;;;;2.67;1.50;;;23.50;48.10;;;;;;5092968;28;20230;-61
2022/12/01 01:32:38;;;;;;;4.55;1.30;;;23.50;48.10;;;;;;5091013;28;20202;-60
2022/12/01 01:35:11;;;;;;;3.45;1.40;;;23.50;48.00;;;;;;5092988;28;20574;-61
2022/12/01 01:37:42;;;;;;;2.65;1.48;;;23.50;47.90;;;;;;5093470;28;20222;-59
2022/12/01 01:40:13;;;;;;;2.92;1.50;;;23.60;47.80;;;;;;5093190;28;20194;-61
2022/12/01 01:42:44;;;;;;;2.00;1.23;;;23.60;47.80;;;;;;5093682;28;20202;-54
2022/12/01 01:45:23;;;;;;;3.60;1.20;;;23.60;47.80;;;;;;5092668;28;20218;-55
2022/12/01 01:47:55;;;;;;;3.20;1.50;;;23.70;47.60;;;;;;5093193;28;20206;-59
2022/12/01 01:50:29;;;;;;;2.25;1.13;;;23.70;47.60;;;;;;5092902;28;20264;-61
2022/12/01 01:53:04;;;;;;;2.88;1.50;;;23.70;47.50;;;;;;5093284;28;20193;-57
2022/12/01 01:55:36;;;;;;;2.08;1.20;;;23.80;47.50;;;;;;5093187;28;20724;-61
2022/12/01 01:58:10;;;;;;;2.22;1.15;;;23.70;47.50;;;;;;5092950;28;20194;-60
2022/12/01 02:00:43;;;;;;;3.38;1.20;;;23.80;47.50;;;;;;5092680;28;20206;-61
2022/12/01 02:03:17;;;;;;;3.05;1.40;;;23.80;47.40;;;;;;5092851;28;20209;-60
2022/12/01 02:05:50;;;;;;;2.42;1.50;;;23.80;47.40;;;;;;5093046;28;20190;-61
2022/12/01 02:08:20;;;;;;;2.40;1.30;;;23.80;47.40;;;;;;5092960;28;20197;-61
2022/12/01 02:11:10;;;;;;;2.92;1.45;;;23.90;47.20;;;;;;5090535;28;20225;-61
2022/12/01 02:13:50;;;;;;;2.83;1.20;;;23.90;47.10;;;;;;5092755;28;20214;-61
2022/12/01 02:16:27;;;;;;;2.15;1.17;;;24.00;47.10;;;;;;5092827;28;20209;-61
2022/12/01 02:19:10;;;;;;;2.08;1.08;;;24.00;47.00;;;;;;5092525;28;20676;-61
2022/12/01 02:21:57;;;;;;;4.57;1.42;;;24.00;46.90;;;;;;5092395;28;20198;-61
2022/12/01 02:25:05;;;;;;;2.88;1.38;;;24.10;46.70;;;;;;5092175;28;20214;-61
2022/12/01 02:27:53;;;;;;;2.28;1.25;;;24.10;46.60;;;;;;5092180;28;20646;-60
2022/12/01 02:30:36;;;;;;;3.08;1.10;;;24.10;46.40;;;;;;5091033;28;20232;-61
2022/12/01 02:33:13;;;;;;;2.78;1.20;;;24.20;46.40;;;;;;5092301;28;20194;-60
2022/12/01 02:35:50;;;;;;;2.28;1.20;;;24.20;46.50;;;;;;5092617;28;20202;-60
2022/12/01 02:38:26;;;;;;;1.75;1.00;;;24.20;46.50;;;;;;5092128;28;20201;-60
2022/12/01 02:41:03;;;;;;;4.10;1.52;;;24.20;47.20;;;;;;5092539;28;20197;-57
2022/12/01 02:43:40;;;;;;;3.13;1.45;;;24.20;46.50;;;;;;5090356;28;20327;-61
2022/12/01 02:46:20;;;;;;;2.40;1.23;;;24.30;46.40;;;;;;5071852;28;20198;-59
2022/12/01 02:48:54;;;;;;;3.17;1.20;;;24.30;46.30;;;;;;5071828;28;20206;-61
2022/12/01 02:51:29;;;;;;;2.92;1.10;;;24.30;46.20;;;;;;5071739;28;20222;-60
2022/12/01 02:54:00;;;;;;;2.95;1.20;;;24.40;46.20;;;;;;5090587;28;20218;-61
2022/12/01 02:56:32;;;;;;;2.78;1.33;;;24.40;46.10;;;;;;5091778;28;20198;-61
2022/12/01 02:59:02;;;;;;;1.55;0.90;;;24.50;46.20;;;;;;5091667;28;20202;-60
2022/12/01 03:01:53;;;;;;;2.58;1.25;;;24.50;46.20;;;;;;5091569;28;20209;-61
2022/12/01 03:04:55;;;;;;;2.45;1.30;;;24.50;46.20;;;;;;5091633;28;20275;-59
2022/12/01 03:07:44;;;;;;;2.22;0.90;;;24.60;46.20;;;;;;5091452;28;20213;-59
2022/12/01 03:10:25;;;;;;;2.40;1.02;;;24.60;46.20;;;;;;5091868;28;20222;-61
2022/12/01 03:13:08;;;;;;;4.18;1.10;;;24.60;46.10;;;;;;5091760;28;20202;-60
2022/12/01 03:15:49;;;;;;;1.92;0.98;;;24.70;46.10;;;;;;5091455;28;20201;-58
2022/12/01 03:18:30;;;;;;;4.35;1.00;;;24.70;46.10;;;;;;5091202;28;20212;-61
2022/12/01 03:21:07;;;;;;;2.30;1.15;;;24.70;46.00;;;;;;5091248;28;20208;-53
2022/12/01 03:23:41;;;;;;;2.13;1.10;;;24.80;45.90;;;;;;5090295;28;20217;-60
2022/12/01 03:26:18;;;;;;;1.95;0.88;;;24.80;45.80;;;;;;5091340;28;20225;-53
2022/12/01 03:28:51;;;;;;;2.05;0.90;;;24.90;45.60;;;;;;5090985;28;20193;-60
2022/12/01 03:31:26;;;;;;;1.83;1.00;;;24.90;45.50;;;;;;5090194;28;20732;-60
2022/12/01 03:34:04;;;;;;;2.65;1.15;;;24.90;45.40;;;;;;5091102;28;20218;-60
2022/12/01 03:36:39;;;;;;;3.40;1.00;;;24.90;45.30;;;;;;5091450;28;20198;-59
2022/12/01 03:39:13;;;;;;;2.40;1.20;;;24.90;45.30;;;;;;5090674;28;20201;-59
2022/12/01 03:41:53;;;;;;;3.15;1.05;;;25.00;45.40;;;;;;5091883;28;20288;-57
2022/12/01 03:44:28;;;;;;;3.65;1.15;;;25.00;45.30;;;;;;5095301;28;20228;-60
2022/12/01 03:47:03;;;;;;;4.05;1.25;;;25.10;45.20;;;;;;5095090;28;20254;-57
2022/12/01 03:49:37;;;;;;;2.65;1.33;;;25.10;45.10;;;;;;5094827;28;20302;-60
2022/12/01 03:52:18;;;;;;;2.45;1.02;;;25.10;45.00;;;;;;5095294;28;20206;-56
2022/12/01 03:54:55;;;;;;;2.53;1.23;;;25.10;45.10;;;;;;5095036;28;20685;-56
2022/12/01 03:57:31;;;;;;;2.72;1.30;;;25.10;45.10;;;;;;5095259;28;20201;-56
2022/12/01 04:00:03;;;;;;;2.20;1.10;;;25.20;45.10;;;;;;5094318;28;20197;-60
2022/12/01 04:02:36;;;;;;;3.53;1.25;;;25.20;45.10;;;;;;5094175;28;20193;-55
2022/12/01 04:05:09;;;;;;;1.20;0.80;;;25.20;45.00;;;;;;5093772;28;20210;-56
2022/12/01 04:07:40;;;;;;;1.60;0.95;;;25.30;45.10;;;;;;5095119;28;20206;-60
2022/12/01 04:10:11;;;;;;;2.95;1.20;;;25.30;44.90;;;;;;5094892;28;20225;-57
2022/12/01 04:12:41;;;;;;;3.20;0.98;;;25.30;44.80;;;;;;5094834;28;20290;-61
2022/12/01 04:15:13;;;;;;;2.15;1.13;;;25.30;44.90;;;;;;5094525;28;20214;-59
2022/12/01 04:17:46;;;;;;;2.03;1.10;;;25.30;44.80;;;;;;5095102;28;20195;-59
2022/12/01 04:20:20;;;;;;;3.28;1.10;;;25.40;44.70;;;;;;5095263;28;20626;-60
2022/12/01 04:23:58;;;;;;;2.55;1.20;;;25.40;44.40;;;;;;5094922;28;20201;-56
2022/12/01 04:26:02;;;;;;;2.92;0.90;;;25.50;44.30;;;;;;5089994;28;20553;-56
2022/12/01 04:28:33;;;;;;;3.95;1.00;;;25.50;44.30;;;;;;5094498;28;20555;-56
2022/12/01 04:31:04;;;;;;;2.22;0.98;;;25.50;44.10;;;;;;5094050;28;20591;-61
2022/12/01 04:33:34;;;;;;;5.70;1.20;;;25.50;44.20;;;;;;5094191;28;20228;-61
2022/12/01 04:36:07;;;;;;;2.95;1.25;;;25.50;44.20;;;;;;5094527;28;20562;-61
2022/12/01 04:38:38;;;;;;;1.70;0.95;;;25.50;44.20;;;;;;5094518;28;20733;-56
2022/12/01 04:41:19;;;;;;;2.58;1.20;;;25.50;44.00;;;;;;5094485;28;20209;-56
2022/12/01 04:43:50;;;;;;;3.25;1.25;;;25.50;43.90;;;;;;5089832;28;20222;-56
2022/12/01 04:46:22;;;;;;;3.45;0.90;;;25.60;44.00;;;;;;5094616;28;20657;-55
2022/12/01 04:48:53;;;;;;;2.40;0.90;;;25.60;44.00;;;;;;5094301;28;20198;-59
2022/12/01 04:51:25;;;;;;;3.13;1.27;;;25.60;44.00;;;;;;5093896;28;20586;-55
2022/12/01 04:53:56;;;;;;;3.38;1.00;;;25.60;44.00;;;;;;5093387;28;20237;-53
2022/12/01 04:56:27;;;;;;;2.95;1.30;;;25.60;43.70;;;;;;5094517;28;20680;-56
2022/12/01 04:58:58;;;;;;;2.28;1.17;;;25.60;43.50;;;;;;5094423;28;20201;-60
2022/12/01 05:01:29;;;;;;;2.92;0.98;;;25.60;43.40;;;;;;5093827;28;20678;-56
2022/12/01 05:04:00;;;;;;;3.90;1.10;;;25.60;43.40;;;;;;5094452;28;20218;-59
2022/12/01 05:06:32;;;;;;;2.33;1.00;;;25.60;43.40;;;;;;5093435;28;20205;-57
2022/12/01 05:09:04;;;;;;;2.63;1.10;;;25.60;43.30;;;;;;5094083;28;20563;-56
2022/12/01 05:11:35;;;;;;;2.85;1.02;;;25.60;43.40;;;;;;5093890;28;20237;-57
2022/12/01 05:14:06;;;;;;;2.60;1.20;;;25.60;43.40;;;;;;5093932;28;20225;-56
2022/12/01 05:16:37;;;;;;;2.58;1.20;;;25.60;43.30;;;;;;5093338;28;20190;-56
2022/12/01 05:21:57;;;;;;;1.70;1.00;;;25.60;43.40;;;;;;5093685;28;20189;-59
2022/12/01 05:24:27;;;;;;;3.08;1.27;;;25.60;43.30;;;;;;5093397;28;20218;-56
2022/12/01 05:26:58;;;;;;;2.88;0.88;;;25.60;43.40;;;;;;5093234;28;20194;-59
2022/12/01 05:29:31;;;;;;;2.05;1.00;;;25.60;43.30;;;;;;5093345;28;20658;-60
2022/12/01 05:32:02;;;;;;;2.08;1.10;;;25.60;43.10;;;;;;5093393;28;20309;-54
2022/12/01 05:34:33;;;;;;;2.38;1.08;;;25.60;43.10;;;;;;5093646;28;20246;-57
2022/12/01 05:37:05;;;;;;;3.75;1.00;;;25.60;43.00;;;;;;5093545;28;20205;-60
2022/12/01 05:39:36;;;;;;;2.35;0.88;;;25.50;42.90;;;;;;5094073;28;20198;-59
2022/12/01 05:42:07;;;;;;;2.63;1.15;;;25.60;43.00;;;;;;5093053;28;20220;-56
2022/12/01 05:44:38;;;;;;;4.35;1.35;;;25.50;42.90;;;;;;5093321;28;20221;-58
2022/12/01 05:47:08;;;;;;;2.85;1.10;;;25.50;42.90;;;;;;5093040;28;20198;-56
2022/12/01 05:49:39;;;;;;;2.83;1.10;;;25.40;43.00;;;;;;5092890;28;20205;-54
2022/12/01 05:52:12;;;;;;;2.88;1.35;;;25.40;43.00;;;;;;5092677;28;20228;-56
2022/12/01 05:54:42;;;;;;;1.92;0.90;;;25.40;43.00;;;;;;5092183;28;20236;-59
2022/12/01 05:57:13;;;;;;;4.18;1.35;;;25.40;43.10;;;;;;5093016;28;20190;-56
2022/12/01 05:59:45;;;;;;;3.08;1.05;;;25.40;43.10;;;;;;5092541;28;20209;-58
2022/12/01 06:02:16;;;;;;;4.05;1.15;;;25.30;43.10;;;;;;5092284;28;20204;-59
2022/12/01 06:04:47;;;;;;;2.92;1.00;;;25.30;43.10;;;;;;5091196;28;20210;-56
2022/12/01 06:07:19;;;;;;;15.10;11.88;;;25.30;43.10;;;;;;5091898;28;20209;-57
2022/12/01 06:09:50;;;;;;;8.32;4.93;;;25.30;43.10;;;;;;5092373;28;20198;-54
2022/12/01 06:12:21;;;;;;;4.43;3.47;;;25.30;43.10;;;;;;5092438;28;20222;-55
2022/12/01 06:14:52;;;;;;;8.15;5.05;;;25.30;43.10;;;;;;5092565;28;20222;-56
2022/12/01 06:17:22;;;;;;;14.98;9.52;;;25.20;43.10;;;;;;5092120;28;20190;-56
2022/12/01 06:19:53;;;;;;;12.55;8.75;;;25.20;43.00;;;;;;5092228;28;20198;-56
2022/12/01 06:22:26;;;;;;;13.40;9.52;;;25.20;43.00;;;;;;5091900;28;20194;-55
2022/12/01 06:24:56;;;;;;;11.73;7.90;;;25.10;43.10;;;;;;5092040;28;20230;-56
2022/12/01 06:27:27;;;;;;;11.80;8.68;;;25.10;43.20;;;;;;5092666;28;20198;-56
2022/12/01 06:29:58;;;;;;;11.38;8.35;;;25.10;43.30;;;;;;5092115;28;20202;-58
2022/12/01 06:32:29;;;;;;;12.30;8.38;;;25.10;43.30;;;;;;5091957;28;20222;-57
2022/12/01 06:35:00;;;;;;;13.43;9.05;;;25.10;43.30;;;;;;5092257;28;20213;-55
2022/12/01 06:37:32;;;;;;;13.15;8.93;;;25.00;43.30;;;;;;5092054;28;20198;-55
2022/12/01 06:40:03;;;;;;;12.48;8.98;;;25.00;43.30;;;;;;5091601;28;20198;-55
2022/12/01 06:42:34;;;;;;;11.80;8.40;;;25.00;43.40;;;;;;5092788;28;20570;-55
2022/12/01 06:45:04;;;;;;;12.02;8.15;;;25.00;43.40;;;;;;5091872;28;20229;-55
2022/12/01 06:47:35;;;;;;;11.65;8.02;;;24.90;43.30;;;;;;5091580;28;20624;-56
2022/12/01 06:50:08;;;;;;;12.98;8.63;;;24.90;43.40;;;;;;5091665;28;20198;-56
2022/12/01 06:52:41;;;;;;;9.73;7.20;;;24.90;43.30;;;;;;5091637;28;20221;-56
2022/12/01 06:55:12;;;;;;;12.75;7.70;;;24.90;43.30;;;;;;5091980;28;20221;-57
2022/12/01 06:57:43;;;;;;;11.45;7.63;;;24.90;43.30;;;;;;5091466;28;20198;-55
2022/12/01 07:00:15;;;;;;;12.68;7.38;;;24.90;43.50;;;;;;5091718;28;20716;-55
2022/12/01 07:02:46;;;;;;;9.60;7.20;;;24.80;43.50;;;;;;5091305;28;20194;-56
2022/12/01 07:05:17;;;;;;;10.80;7.28;;;24.80;43.50;;;;;;5091630;28;20229;-56
2022/12/01 07:07:49;;;;;;;12.25;6.80;;;24.70;43.50;;;;;;5091545;28;20205;-55
2022/12/01 07:10:20;;;;;;;10.75;6.32;;;24.70;43.50;;;;;;5091343;28;20198;-55
2022/12/01 07:12:51;;;;;;;9.43;5.95;;;24.70;43.50;;;;;;5091208;28;20229;-56
2022/12/01 07:15:22;;;;;;;9.07;6.03;;;24.70;43.50;;;;;;5091358;28;20682;-56
2022/12/01 07:17:52;;;;;;;8.57;5.60;;;24.70;43.50;;;;;;5090374;28;20190;-58
2022/12/01 07:20:23;;;;;;;9.45;5.70;;;24.60;43.50;;;;;;5091492;28;20534;-56
2022/12/01 07:22:57;;;;;;;9.55;6.07;;;24.60;43.50;;;;;;5091611;28;20216;-54
2022/12/01 07:25:27;;;;;;;8.60;5.65;;;24.60;43.50;;;;;;5091547;28;20214;-58
2022/12/01 07:27:58;;;;;;;7.80;5.97;;;24.60;43.50;;;;;;5091764;28;20208;-55
2022/12/01 07:30:29;;;;;;;7.78;5.55;;;24.50;43.50;;;;;;5090824;28;20560;-55
2022/12/01 07:33:00;;;;;;;6.90;5.38;;;24.50;43.50;;;;;;5090855;28;20550;-55
2022/12/01 07:35:31;;;;;;;9.57;5.43;;;24.50;43.50;;;;;;5091158;28;20210;-56
2022/12/01 07:38:04;;;;;;;7.13;5.38;;;24.50;43.50;;;;;;5090967;28;20194;-56
2022/12/01 07:40:34;;;;;;;6.80;4.68;;;24.50;43.60;;;;;;5090440;28;20198;-58
2022/12/01 07:43:05;;;;;;;7.30;4.97;;;24.50;43.60;;;;;;5091376;28;20216;-58
2022/12/01 07:45:37;;;;;;;7.80;4.75;;;24.40;43.60;;;;;;5091122;28;20218;-59
2022/12/01 07:48:08;;;;;;;7.97;4.90;;;24.40;43.70;;;;;;5091039;28;20209;-54
2022/12/01 07:50:39;;;;;;;6.65;4.43;;;24.30;43.70;;;;;;5091026;28;20194;-55
2022/12/01 07:53:11;;;;;;;6.57;4.43;;;24.30;43.60;;;;;;5091107;28;20232;-59
2022/12/01 07:55:49;;;;;;;7.13;4.53;;;24.30;43.60;;;;;;5090742;28;20205;-55
2022/12/01 07:58:19;;;;;;;6.30;4.07;;;24.30;43.70;;;;;;5090455;28;20713;-56
2022/12/01 08:00:50;;;;;;;8.05;4.30;;;24.30;43.70;;;;;;5091004;28;20201;-56
2022/12/01 08:03:21;;;;;;;6.75;4.30;;;24.30;43.70;;;;;;5090989;28;20198;-55
2022/12/01 08:05:59;;;;;;;6.78;4.18;;;24.20;43.70;;;;;;5091204;28;20209;-52
2022/12/01 08:08:33;;;;;;;5.25;3.95;;;24.20;44.30;;;;;;5090892;28;20277;-58
2022/12/01 08:11:06;;;;;;;6.45;4.10;;;24.20;43.80;;;;;;5090538;28;20203;-58
2022/12/01 08:13:36;;;;;;;7.45;3.97;;;24.10;43.70;;;;;;5090706;28;20688;-57
2022/12/01 08:16:08;;;;;;;5.00;3.45;;;24.10;43.80;;;;;;5091040;28;20198;-51
2022/12/01 08:18:39;;;;;;;6.20;3.53;;;24.10;43.80;;;;;;5090603;28;20208;-58
2022/12/01 08:21:11;;;;;;;5.55;3.60;;;24.00;43.80;;;;;;5090591;28;20198;-57
2022/12/01 08:23:44;;;;;;;5.63;3.85;;;24.00;43.90;;;;;;5090522;28;20699;-53
2022/12/01 08:26:17;;;;;;;5.38;3.60;;;24.00;43.90;;;;;;5091030;28;20198;-56
2022/12/01 08:28:48;;;;;;;6.05;3.53;;;24.00;44.00;;;;;;5092434;28;20197;-58
2022/12/01 08:31:21;;;;;;;4.93;3.42;;;24.00;44.00;;;;;;5094509;28;20205;-57
2022/12/01 08:33:52;;;;;;;5.70;3.50;;;23.90;44.00;;;;;;5093811;28;20229;-57
2022/12/01 08:36:23;;;;;;;6.40;3.35;;;23.90;44.00;;;;;;5093778;28;20217;-58
2022/12/01 08:38:57;;;;;;;6.75;2.92;;;23.90;44.00;;;;;;5093840;28;20201;-58
2022/12/01 08:41:28;;;;;;;5.05;3.40;;;23.90;44.00;;;;;;5094448;28;20654;-55
2022/12/01 08:43:59;;;;;;;3.30;2.40;;;23.80;44.00;;;;;;5095079;28;20249;-56
2022/12/01 08:46:32;;;;;;;4.60;3.08;;;23.80;44.00;;;;;;5094167;28;20201;-57
2022/12/01 08:49:03;;;;;;;4.78;3.10;;;23.80;44.00;;;;;;5094054;28;20792;-58
2022/12/01 08:51:35;;;;;;;3.53;2.90;;;23.70;44.10;;;;;;5094327;28;20217;-56
2022/12/01 08:54:08;;;;;;;5.38;2.97;;;23.70;44.00;;;;;;5094294;28;20576;-58
2022/12/01 08:56:40;;;;;;;5.25;3.03;;;23.70;44.10;;;;;;5094291;28;20239;-53
2022/12/01 08:59:11;;;;;;;3.97;2.58;;;23.70;44.10;;;;;;5092896;28;20686;-59
2022/12/01 09:01:53;;;;;;;4.75;2.95;;;23.70;44.10;;;;;;5094454;28;20198;-54
2022/12/01 09:04:24;;;;;;;3.90;2.40;;;23.60;44.10;;;;;;5094118;28;20272;-51
2022/12/01 09:06:56;;;;;;;3.97;2.47;;;23.60;44.10;;;;;;5094250;28;20198;-58
2022/12/01 09:09:30;;;;;;;3.88;2.72;;;23.60;44.20;;;;;;5093900;28;20202;-55
2022/12/01 09:12:01;;;;;;;3.58;2.45;;;23.50;44.10;;;;;;5093829;28;20221;-59
2022/12/01 09:14:31;;;;;;;3.45;2.53;;;23.50;44.20;;;;;;5093183;28;20807;-58
2022/12/01 09:17:02;;;;;;;3.05;2.30;;;23.50;44.20;;;;;;5093550;28;20194;-57
2022/12/01 09:19:33;;;;;;;3.60;2.30;;;23.50;44.20;;;;;;5093065;28;20565;-56
2022/12/01 09:22:04;;;;;;;3.80;2.20;;;23.40;44.30;;;;;;5093448;28;20191;-56
2022/12/01 09:24:37;;;;;;;2.97;1.98;;;23.40;44.40;;;;;;5087435;28;20210;-53
2022/12/01 09:27:08;;;;;;;3.45;1.92;;;23.40;44.40;;;;;;5091951;28;20684;-57
2022/12/01 09:29:39;;;;;;;4.10;2.28;;;23.40;44.50;;;;;;5092505;28;20202;-52
2022/12/01 09:32:09;;;;;;;2.97;2.10;;;23.30;44.50;;;;;;5092489;28;20229;-55
2022/12/01 09:34:40;;;;;;;3.45;2.17;;;23.30;44.60;;;;;;5092362;28;20221;-56
2022/12/01 09:37:11;;;;;;;2.75;1.80;;;23.30;44.70;;;;;;5092651;28;20206;-56
2022/12/01 09:39:43;;;;;;;3.38;1.92;;;23.20;44.70;;;;;;5092456;28;20197;-55
2022/12/01 09:42:26;;;;;;;3.92;1.92;;;23.20;44.70;;;;;;5092752;28;20220;-60
2022/12/01 09:44:59;;;;;;;3.10;1.77;;;23.20;44.70;;;;;;5092561;28;20259;-59
2022/12/01 09:47:33;;;;;;;2.60;2.08;;;23.10;44.60;;;;;;5092930;28;20228;-54
2022/12/01 09:50:06;;;;;;;3.28;2.05;;;23.20;44.70;;;;;;5092872;28;20464;-60
2022/12/01 09:52:51;;;;;;;2.83;1.88;;;23.10;44.70;;;;;;5092529;28;20222;-55
2022/12/01 09:55:27;;;;;;;3.15;1.80;;;23.10;44.80;;;;;;5092068;28;20694;-58
2022/12/01 09:57:59;;;;;;;3.80;1.92;;;23.00;44.70;;;;;;5080023;28;20197;-58
2022/12/01 10:00:32;;;;;;;3.92;1.90;;;23.00;44.80;;;;;;5091658;28;20661;-56
2022/12/01 10:03:13;;;;;;;2.92;1.80;;;23.00;44.80;;;;;;5092406;28;20198;-49
2022/12/01 10:05:48;;;;;;;3.30;1.80;;;22.90;44.80;;;;;;5090855;28;20205;-49
2022/12/01 10:08:22;;;;;;;2.58;1.70;;;22.90;44.80;;;;;;5091665;28;20559;-53
2022/12/01 10:11:00;;;;;;;3.05;1.70;;;22.90;44.90;;;;;;5089556;28;20201;-56
2022/12/01 10:13:33;;;;;;;2.10;1.67;;;22.90;45.00;;;;;;5091719;28;20229;-52
2022/12/01 10:16:11;;;;;;;3.17;1.50;;;22.90;45.60;;;;;;5092337;28;20575;-53
2022/12/01 10:18:53;;;;;;;4.38;1.80;;;22.80;45.00;;;;;;5091480;28;20215;-54
2022/12/01 10:21:38;;;;;;;2.25;1.58;;;22.80;45.00;;;;;;5087404;28;20558;-56
2022/12/01 10:24:22;;;;;;;3.63;1.90;;;22.80;45.10;;;;;;5089666;28;20709;-50
2022/12/01 10:27:08;;;;;;;2.85;1.60;;;22.70;45.00;;;;;;5082801;28;20209;-55
2022/12/01 10:29:45;;;;;;;2.25;1.58;;;22.80;45.10;;;;;;5091095;28;20194;-57
2022/12/01 10:32:20;;;;;;;2.20;1.58;;;22.70;45.10;;;;;;5092001;28;20222;-59
2022/12/01 10:34:51;;;;;;;1.77;1.60;;;22.70;45.10;;;;;;5091396;28;20221;-59
2022/12/01 10:37:25;;;;;;;2.30;1.58;;;22.60;45.10;;;;;;5091707;28;20576;-61
2022/12/01 10:39:56;;;;;;;2.15;1.40;;;22.60;45.20;;;;;;5091448;28;20195;-60
2022/12/01 10:42:33;;;;;;;2.45;1.45;;;22.60;45.20;;;;;;5091971;28;20205;-53
2022/12/01 10:45:06;;;;;;;2.42;1.60;;;22.50;45.20;;;;;;5091532;28;20214;-56
2022/12/01 10:47:37;;;;;;;2.22;1.42;;;22.50;45.30;;;;;;5091857;28;20197;-50
2022/12/01 10:50:08;;;;;;;2.38;1.60;;;22.50;45.30;;;;;;5092207;28;20658;-52
2022/12/01 10:52:40;;;;;;;2.28;1.50;;;22.50;45.30;;;;;;5091380;28;20217;-57
2022/12/01 10:55:28;;;;;;;1.73;1.55;;;22.40;45.30;;;;;;5092464;28;20218;-56
2022/12/01 10:58:02;;;;;;;2.20;1.40;;;22.50;45.30;;;;;;5091907;28;20267;-55
2022/12/01 11:00:37;;;;;;;1.58;1.30;;;22.40;45.30;;;;;;5091456;28;20193;-57
2022/12/01 11:03:08;;;;;;;3.22;1.48;;;22.40;45.30;;;;;;5091988;28;20189;-55
2022/12/01 11:05:43;;;;;;;2.35;1.40;;;22.40;45.30;;;;;;5091112;28;20205;-53
2022/12/01 11:08:25;;;;;;;2.67;1.60;;;22.40;45.30;;;;;;5092052;28;20573;-57
2022/12/01 11:10:56;;;;;;;2.33;1.42;;;22.30;45.40;;;;;;5092176;28;20201;-55
2022/12/01 11:13:31;;;;;;;1.70;1.30;;;22.40;45.40;;;;;;5091867;28;20217;-57
2022/12/01 11:16:02;;;;;;;2.15;1.40;;;22.30;45.40;;;;;;5092031;28;20189;-56
2022/12/01 11:18:36;;;;;;;1.30;1.20;;;22.30;45.40;;;;;;5091313;28;20194;-56
2022/12/01 11:21:16;;;;;;;3.20;1.40;;;22.30;45.60;;;;;;5090139;28;20324;-57
2022/12/01 11:23:49;;;;;;;1.73;1.20;;;22.20;45.50;;;;;;5091566;28;20690;-56
2022/12/01 11:26:23;;;;;;;2.50;1.50;;;22.20;45.50;;;;;;5091911;28;20206;-56
2022/12/01 11:28:59;;;;;;;1.30;1.13;;;22.20;45.60;;;;;;5091878;28;20269;-54
2022/12/01 11:31:40;;;;;;;1.85;1.38;;;22.20;45.50;;;;;;5091898;28;20198;-55
2022/12/01 11:34:20;;;;;;;1.67;1.00;;;22.20;45.60;;;;;;5091288;28;20228;-57
2022/12/01 11:36:53;;;;;;;1.55;1.05;;;22.20;45.60;;;;;;5091584;28;20195;-56
2022/12/01 11:39:31;;;;;;;2.03;1.63;;;22.10;45.50;;;;;;5091756;28;20205;-55
2022/12/01 11:42:04;;;;;;;1.75;1.25;;;22.10;45.60;;;;;;5091752;28;20532;-55
2022/12/01 11:44:38;;;;;;;2.00;1.40;;;22.10;45.60;;;;;;5091844;28;20221;-55
2022/12/01 11:47:22;;;;;;;2.95;1.67;;;22.10;45.60;;;;;;5091342;28;20569;-57
2022/12/01 11:49:56;;;;;;;1.30;1.20;;;22.10;45.70;;;;;;5091190;28;20205;-54
2022/12/01 11:52:30;;;;;;;1.85;1.30;;;22.00;45.70;;;;;;5091792;28;20746;-55
2022/12/01 11:55:20;;;;;;;1.60;1.20;;;22.00;45.70;;;;;;5090970;28;20590;-54
2022/12/01 11:57:53;;;;;;;1.88;1.17;;;22.00;45.70;;;;;;5091163;28;20726;-54
2022/12/01 12:00:27;;;;;;;2.63;1.25;;;22.00;45.70;;;;;;5090312;28;20190;-53
2022/12/01 12:03:15;;;;;;;2.17;1.35;;;22.00;45.80;;;;;;5092840;28;20204;-56
2022/12/01 12:05:58;;;;;;;1.52;1.17;;;22.00;45.80;;;;;;5095276;28;20198;-52
2022/12/01 12:08:39;;;;;;;1.60;1.10;;;21.90;45.80;;;;;;5094909;28;20189;-54
2022/12/01 12:11:17;;;;;;;1.98;1.15;;;21.90;45.80;;;;;;5095187;28;20562;-55
2022/12/01 12:14:22;;;;;;;1.73;1.10;;;21.90;45.80;;;;;;5094959;28;20238;-54
2022/12/01 12:17:14;;;;;;;1.63;1.17;;;21.90;45.90;;;;;;5094783;28;20194;-56
2022/12/01 12:19:58;;;;;;;1.48;1.20;;;21.90;45.90;;;;;;5095099;28;20206;-53
2022/12/01 12:22:42;;;;;;;1.35;1.08;;;21.90;45.90;;;;;;5095108;28;20533;-53
2022/12/01 12:25:32;;;;;;;2.13;1.08;;;21.80;45.90;;;;;;5094898;28;20218;-54
2022/12/01 12:28:19;;;;;;;1.63;0.98;;;21.80;45.90;;;;;;5094842;28;20206;-52
2022/12/01 12:31:16;;;;;;;1.75;1.13;;;21.80;45.90;;;;;;5094898;28;20205;-55
2022/12/01 12:34:26;;;;;;;2.22;1.23;;;21.80;45.90;;;;;;5094411;28;20257;-54
2022/12/01 12:37:07;;;;;;;2.03;1.20;;;21.80;46.00;;;;;;5012389;28;20692;-57
2022/12/01 12:39:57;;;;;;;2.38;1.17;;;21.80;46.00;;;;;;5012339;28;20795;-55
2022/12/01 12:42:40;;;;;;;1.70;1.10;;;21.70;46.00;;;;;;5075031;28;20206;-52
2022/12/01 12:45:22;;;;;;;1.35;0.80;;;21.70;46.20;;;;;;5094624;28;20213;-56
2022/12/01 12:48:11;;;;;;;1.52;0.95;;;21.70;46.10;;;;;;5094178;28;20198;-55
2022/12/01 12:50:51;;;;;;;1.73;1.00;;;21.70;46.10;;;;;;5094072;28;20201;-57
2022/12/01 12:53:25;;;;;;;1.45;1.05;;;21.70;46.10;;;;;;5093945;28;20241;-52
2022/12/01 12:56:00;;;;;;;1.40;0.80;;;21.70;46.10;;;;;;5094204;28;20567;-55
2022/12/01 12:58:38;;;;;;;2.05;1.00;;;21.70;46.20;;;;;;5094418;28;20197;-58
2022/12/01 13:01:17;;;;;;;1.35;0.88;;;21.70;46.20;;;;;;5094475;28;20197;-55
2022/12/01 13:03:52;;;;;;;1.52;1.00;;;21.60;46.10;;;;;;5094433;28;20229;-57
2022/12/01 13:06:31;;;;;;;1.75;1.02;;;21.60;46.10;;;;;;5094274;28;20209;-56
2022/12/01 13:09:08;;;;;;;2.92;1.10;;;21.60;46.10;;;;;;5093611;28;20193;-55
2022/12/01 13:11:45;;;;;;;1.77;0.95;;;21.60;46.10;;;;;;5094019;28;20193;-56
2022/12/01 13:14:22;;;;;;;1.48;1.08;;;21.60;46.20;;;;;;5092589;28;20593;-55
2022/12/01 13:16:55;;;;;;;2.05;1.20;;;21.60;46.10;;;;;;5093885;28;20210;-58
2022/12/01 13:19:30;;;;;;;2.20;1.30;;;21.60;46.10;;;;;;5093763;28;20813;-56
2022/12/01 13:22:03;;;;;;;1.10;0.73;;;21.60;46.20;;;;;;5093931;28;20242;-59
2022/12/01 13:24:34;;;;;;;1.95;0.90;;;21.50;46.20;;;;;;5093715;28;20210;-56
2022/12/01 13:27:07;;;;;;;1.30;0.90;;;21.50;46.20;;;;;;5093884;28;20202;-56
2022/12/01 13:29:39;;;;;;;1.38;1.00;;;21.50;46.20;;;;;;5093705;28;20202;-55